Time;durP1;ratioP1;P1;durP2;ratioP2;P2;SDS_P1;SDS_P2;PMS_P1;PMS_P2;Temp;Humidity;BMP_temperature;BMP_pressure;BME280_temperature;BME280_humidity;BME280_pressure;Samples;Min_cycle;Max_cycle;Signal;HPM_P1;HPM_P2
2022/11/20 00:01:44;;;;;;;12.23;3.30;;;;;;;12.37;nan;102429.63;6108814;23;20412;-91
2022/11/20 00:08:16;;;;;;;16.80;4.07;;;;;;;12.58;nan;102450.28;6156851;23;20495;-91
2022/11/20 00:11:39;;;;;;;12.00;4.27;;;;;;;12.60;nan;102440.88;6084161;23;20421;-91
2022/11/20 00:14:09;;;;;;;13.30;4.83;;;;;;;12.50;nan;102415.50;6131420;23;20405;-92
2022/11/20 00:20:04;;;;;;;8.90;3.90;;;;;;;12.63;nan;102439.69;6157433;23;20513;-91
2022/11/20 00:22:42;;;;;;;10.90;4.57;;;;;;;12.66;nan;102434.75;6084732;23;20448;-92
2022/11/20 00:25:22;;;;;;;11.43;4.50;;;;;;;12.77;nan;102444.53;6084412;23;20412;-91
2022/11/20 00:27:59;;;;;;;10.77;3.43;;;;;;;12.79;nan;102445.22;6107386;23;20436;-92
2022/11/20 00:31:13;;;;;;;7.80;3.60;;;;;;;12.81;nan;102437.69;6109304;23;20899;-92
2022/11/20 00:33:43;;;;;;;23.93;3.80;;;;;;;12.69;nan;102422.59;6131228;23;20761;-91
2022/11/20 00:36:24;;;;;;;11.23;3.50;;;;;;;12.85;nan;102446.47;6108067;23;20381;-92
2022/11/20 00:39:00;;;;;;;9.20;2.90;;;;;;;12.79;nan;102440.59;6084296;23;20416;-91
2022/11/20 00:41:29;;;;;;;14.13;2.97;;;;;;;12.82;nan;102442.16;6083635;23;20420;-91
2022/11/20 00:44:45;;;;;;;18.83;3.50;;;;;;;12.88;nan;102444.25;6107341;23;20879;-91
2022/11/20 00:48:05;;;;;;;17.33;2.87;;;;;;;12.88;nan;102452.47;6132614;23;20440;-91
2022/11/20 00:51:10;;;;;;;9.40;2.80;;;;;;;12.89;nan;102443.22;6131114;23;20412;-91
2022/11/20 00:53:57;;;;;;;11.67;3.00;;;;;;;12.82;nan;102431.19;6131694;23;20916;-91
2022/11/20 00:56:35;;;;;;;5.20;2.30;;;;;;;12.82;nan;102433.94;6083372;23;20409;-91
2022/11/20 00:59:08;;;;;;;9.50;2.73;;;;;;;12.87;nan;102445.28;6084339;23;20412;-91
2022/11/20 01:01:40;;;;;;;10.20;2.50;;;;;;;12.77;nan;102431.69;6107780;23;20409;-91
2022/11/20 01:04:15;;;;;;;6.10;2.90;;;;;;;12.80;nan;102431.34;6084055;23;20737;-90
2022/11/20 01:06:44;;;;;;;11.50;2.93;;;;;;;12.79;nan;102428.78;6083542;23;20431;-91
2022/11/20 01:09:41;;;;;;;15.73;3.03;;;;;;;12.85;nan;102435.47;6083415;23;20417;-91
2022/11/20 01:12:21;;;;;;;12.60;2.83;;;;;;;12.72;nan;102422.22;6107067;23;20412;-91
2022/11/20 01:14:50;;;;;;;5.23;1.63;;;;;;;12.76;nan;102420.88;6082864;23;20471;-91
2022/11/20 01:21:27;;;;;;;9.23;2.50;;;;;;;12.91;nan;102443.88;6157660;23;20909;-91
2022/11/20 01:24:24;;;;;;;14.23;2.90;;;;;;;12.92;nan;102431.88;6132698;23;20416;-91
2022/11/20 01:26:54;;;;;;;11.90;2.97;;;;;;;12.95;nan;102434.28;6133342;23;20440;-92
2022/11/20 01:29:24;;;;;;;8.10;3.07;;;;;;;12.95;nan;102428.81;6085370;23;20381;-91
2022/11/20 01:35:47;;;;;;;7.87;2.57;;;;;;;12.94;nan;102427.09;6128899;23;20481;-91
2022/11/20 01:38:43;;;;;;;8.63;2.97;;;;;;;12.93;nan;102406.16;6079894;23;20445;-91
2022/11/20 01:45:00;;;;;;;11.70;3.07;;;;;;;12.79;nan;102404.06;6107502;23;20798;-91
2022/11/20 01:48:01;;;;;;;9.13;2.97;;;;;;;12.91;nan;102419.19;6011699;23;20452;-91
2022/11/20 01:51:19;;;;;;;13.93;2.53;;;;;;;12.89;nan;102417.66;5988584;23;20735;-91
2022/11/20 01:53:56;;;;;;;11.30;2.63;;;;;;;12.78;nan;102396.88;5987594;23;20436;-90
2022/11/20 01:57:07;;;;;;;5.10;1.93;;;;;;;12.91;nan;102415.59;5966045;23;20401;-91
2022/11/20 01:59:52;;;;;;;12.03;2.60;;;;;;;12.95;nan;102419.72;6011104;23;20876;-91
2022/11/20 02:06:27;;;;;;;10.67;2.57;;;;;;;12.99;nan;102408.25;6011517;23;20413;-91
2022/11/20 02:09:28;;;;;;;7.20;2.70;;;;;;;13.00;nan;102404.47;5988250;23;20428;-90
2022/11/20 02:15:38;;;;;;;10.70;2.20;;;;;;;13.00;nan;102393.50;5991721;23;20429;-91
2022/11/20 02:22:23;;;;;;;8.70;3.00;;;;;;;13.02;nan;102388.69;6127708;23;20385;-92
2022/11/20 02:25:15;;;;;;;9.27;2.33;;;;;;;13.01;nan;102386.97;6079278;23;20507;-91
2022/11/20 02:27:47;;;;;;;9.07;3.20;;;;;;;13.01;nan;102389.72;6079240;23;20464;-91
2022/11/20 02:30:36;;;;;;;15.47;4.23;;;;;;;12.88;nan;102364.66;6079096;23;20409;-91
2022/11/20 02:33:29;;;;;;;14.20;4.00;;;;;;;12.97;nan;102382.84;6089861;23;20521;-90
2022/11/20 02:36:17;;;;;;;15.67;3.63;;;;;;;12.91;nan;102380.75;6079329;23;20397;-91
2022/11/20 02:39:37;;;;;;;12.60;3.57;;;;;;;12.90;nan;102387.28;6098056;23;20584;-91
2022/11/20 02:42:41;;;;;;;7.20;2.70;;;;;;;12.91;nan;102378.03;6057023;23;20473;-91
2022/11/20 02:48:36;;;;;;;6.53;2.20;;;;;;;12.80;nan;102386.59;6141533;23;20803;-91
2022/11/20 02:51:44;;;;;;;10.60;2.97;;;;;;;12.80;nan;102383.84;6069853;23;20410;-91
2022/11/20 02:54:54;;;;;;;7.63;2.40;;;;;;;12.77;nan;102386.91;6103829;23;20405;-91
2022/11/20 02:57:32;;;;;;;9.83;3.53;;;;;;;12.73;nan;102386.38;6103127;23;20708;-91
2022/11/20 03:03:55;;;;;;;7.90;1.73;;;;;;;12.56;nan;102375.53;6128547;23;20844;-91
2022/11/20 03:06:38;;;;;;;6.73;1.70;;;;;;;12.54;nan;102366.63;6079241;23;20418;-91
2022/11/20 03:09:33;;;;;;;15.47;1.77;;;;;;;12.60;nan;102396.13;6056070;23;20409;-91
2022/11/20 03:12:02;;;;;;;6.90;1.60;;;;;;;12.59;nan;102387.03;6079387;23;20414;-91
2022/11/20 03:14:58;;;;;;;9.73;1.47;;;;;;;12.58;nan;102376.25;6055410;23;20471;-91
2022/11/20 03:17:29;;;;;;;11.87;1.87;;;;;;;12.45;nan;102369.34;6079134;23;20413;-90
2022/11/20 03:20:41;;;;;;;6.00;1.70;;;;;;;12.54;nan;102380.34;6079246;23;20410;-91
2022/11/20 03:23:22;;;;;;;8.07;1.50;;;;;;;12.46;nan;102372.97;6102940;23;20732;-91
2022/11/20 03:26:13;;;;;;;15.33;2.00;;;;;;;12.40;nan;102369.00;6078853;23;20414;-91
2022/11/20 03:29:01;;;;;;;6.67;1.43;;;;;;;12.43;nan;102387.84;6055573;23;20446;-91
2022/11/20 03:31:41;;;;;;;5.80;1.70;;;;;;;12.39;nan;102382.88;6078598;23;20414;-91
2022/11/20 03:34:38;;;;;;;4.53;1.67;;;;;;;12.34;nan;102396.19;6065924;23;20791;-91
2022/11/20 03:37:08;;;;;;;9.90;1.93;;;;;;;12.20;nan;102374.91;6107652;23;20409;-90
2022/11/20 03:43:22;;;;;;;3.30;1.50;;;;;;;12.11;nan;102374.03;6157292;23;20896;-90
2022/11/20 03:46:09;;;;;;;4.97;1.87;;;;;;;12.16;nan;102371.63;6084275;23;20867;-91
2022/11/20 03:48:39;;;;;;;4.60;1.63;;;;;;;12.06;nan;102359.94;6106652;23;20444;-91
2022/11/20 03:51:35;;;;;;;7.50;2.27;;;;;;;12.07;nan;102368.00;6083564;23;20444;-90
2022/11/20 03:54:08;;;;;;;10.20;1.90;;;;;;;11.92;nan;102355.09;6107628;23;20411;-90
2022/11/20 03:56:53;;;;;;;4.07;1.83;;;;;;;11.94;nan;102362.09;6108117;23;20378;-91
2022/11/20 03:59:35;;;;;;;6.13;2.20;;;;;;;11.93;nan;102351.31;6083933;23;20408;-91
2022/11/20 04:05:46;;;;;;;9.13;2.33;;;;;;;11.76;nan;102337.50;6157338;23;20416;-91
2022/11/20 04:08:31;;;;;;;11.13;2.30;;;;;;;11.69;nan;102336.44;6083649;23;20452;-91
2022/11/20 04:11:11;;;;;;;6.70;2.90;;;;;;;11.75;nan;102346.72;6083863;23;20416;-90
2022/11/20 04:17:38;;;;;;;10.00;2.33;;;;;;;11.69;nan;102339.16;6157166;23;20356;-91
2022/11/20 04:20:25;;;;;;;7.63;2.03;;;;;;;11.75;nan;102348.59;6020098;23;20420;-91
2022/11/20 04:23:01;;;;;;;7.47;2.70;;;;;;;11.63;nan;102326.13;6018970;23;20415;-91
2022/11/20 04:25:50;;;;;;;8.50;2.70;;;;;;;11.69;nan;102350.13;6043842;23;20415;-91
2022/11/20 04:28:20;;;;;;;5.93;2.27;;;;;;;11.58;nan;102338.56;6020138;23;20439;-90
2022/11/20 04:30:49;;;;;;;10.97;2.70;;;;;;;11.58;nan;102324.88;5996976;23;20420;-90
2022/11/20 04:33:58;;;;;;;7.30;2.87;;;;;;;11.64;nan;102343.41;6043485;23;20416;-90
2022/11/20 04:36:28;;;;;;;5.97;2.40;;;;;;;11.43;nan;102319.13;6015261;23;20412;-90
2022/11/20 04:39:00;;;;;;;10.10;1.70;;;;;;;11.48;nan;102338.69;5969324;23;21000;-90
2022/11/20 04:42:28;;;;;;;11.83;1.73;;;;;;;11.52;nan;102361.13;5969591;23;20529;-90
2022/11/20 04:45:19;;;;;;;11.97;1.80;;;;;;;11.49;nan;102367.78;6022304;23;20412;-90
2022/11/20 04:48:27;;;;;;;11.40;1.63;;;;;;;11.49;nan;102361.44;5991666;23;20452;-90
2022/11/20 04:51:44;;;;;;;7.10;1.63;;;;;;;11.48;nan;102363.31;5994696;23;20420;-90
2022/11/20 04:54:31;;;;;;;11.80;1.90;;;;;;;11.31;nan;102343.19;6015440;23;20697;-90
2022/11/20 04:57:22;;;;;;;13.53;2.13;;;;;;;11.41;nan;102362.22;5992347;23;20470;-91
2022/11/20 05:00:18;;;;;;;;;;;;;;;;;;;;;
2022/11/20 05:03:35;;;;;;;4.37;1.70;;;;;;;11.34;nan;102369.38;6105591;23;20457;-90
2022/11/20 05:06:21;;;;;;;5.83;2.27;;;;;;;11.19;nan;102360.00;6102756;23;20410;-91
2022/11/20 05:09:03;;;;;;;10.67;2.20;;;;;;;11.27;nan;102376.50;6080384;23;20425;-90
2022/11/20 05:11:55;;;;;;;5.83;1.97;;;;;;;11.14;nan;102351.44;6082101;23;20398;-90
2022/11/20 05:15:06;;;;;;;4.67;2.20;;;;;;;11.25;nan;102368.44;6055524;23;20485;-90
2022/11/20 05:17:35;;;;;;;6.30;2.50;;;;;;;11.19;nan;102363.59;6101559;23;20452;-91
2022/11/20 05:20:25;;;;;;;6.73;2.63;;;;;;;11.24;nan;102376.81;6054074;23;20744;-91
2022/11/20 05:23:00;;;;;;;7.23;1.97;;;;;;;11.15;nan;102377.78;6078144;23;20473;-90
2022/11/20 05:25:30;;;;;;;8.77;2.03;;;;;;;11.08;nan;102361.97;6054727;23;20420;-91
2022/11/20 05:28:03;;;;;;;8.03;2.40;;;;;;;11.01;nan;102344.47;6055001;23;20437;-90
2022/11/20 05:30:42;;;;;;;6.13;1.33;;;;;;;11.15;nan;102383.25;6054537;23;20410;-90
2022/11/20 05:34:03;;;;;;;7.97;2.10;;;;;;;11.13;nan;102380.66;6078387;23;20739;-91
2022/11/20 05:36:39;;;;;;;5.50;1.40;;;;;;;10.98;nan;102358.44;6131061;23;20474;-91
2022/11/20 05:39:22;;;;;;;8.00;2.07;;;;;;;11.04;nan;102363.31;6107074;23;20415;-91
2022/11/20 05:45:13;;;;;;;5.13;1.70;;;;;;;11.04;nan;102368.78;6115494;23;20412;-90
2022/11/20 05:47:47;;;;;;;8.50;2.60;;;;;;;10.98;nan;102363.91;6106562;23;20444;-90
2022/11/20 05:50:18;;;;;;;5.47;1.90;;;;;;;10.89;nan;102343.00;6084634;23;20415;-90
2022/11/20 05:52:54;;;;;;;7.40;1.70;;;;;;;10.84;nan;102328.91;6083180;23;20492;-90
2022/11/20 05:55:41;;;;;;;12.53;1.73;;;;;;;10.98;nan;102358.44;6083560;23;20441;-90
2022/11/20 05:58:10;;;;;;;7.80;1.90;;;;;;;10.88;nan;102349.47;6105172;23;20415;-90
2022/11/20 06:01:18;;;;;;;9.67;3.10;;;;;;;10.93;nan;102360.81;6082981;23;20743;-91
2022/11/20 06:04:03;;;;;;;9.80;2.53;;;;;;;10.84;nan;102363.63;6130917;23;20420;-92
2022/11/20 06:10:11;;;;;;;18.10;2.43;;;;;;;10.87;nan;102364.16;6158794;23;20365;-91
2022/11/20 06:16:38;;;;;;;10.60;2.47;;;;;;;10.79;nan;102369.53;6158635;23;20357;-92
2022/11/20 06:26:33;;;;;;;6.67;1.43;;;;;;;10.68;nan;102387.03;6158501;23;20412;-92
2022/11/20 06:29:37;;;;;;;6.53;1.27;;;;;;;10.72;nan;102393.06;6084804;23;20463;-92
2022/11/20 06:43:48;;;;;;;9.20;1.97;;;;;;;10.84;nan;102410.97;6158255;23;20449;-92
2022/11/20 06:57:02;;;;;;;8.43;2.10;;;;;;;10.69;nan;102420.72;6158106;23;20704;-92
2022/11/20 07:03:17;;;;;;;9.27;2.30;;;;;;;10.52;nan;102400.53;6158511;23;20687;-92
2022/11/20 07:06:06;;;;;;;9.27;2.57;;;;;;;10.60;nan;102407.94;6103784;23;20470;-89
2022/11/20 07:12:40;;;;;;;12.93;3.17;;;;;;;10.47;nan;102407.47;6158235;23;20373;-92
2022/11/20 07:15:31;;;;;;;15.83;1.80;;;;;;;10.56;nan;102433.91;6084051;23;20479;-93
2022/11/20 07:22:29;;;;;;;6.93;1.53;;;;;;;10.47;nan;102457.53;6157944;23;20376;-91
2022/11/20 07:28:52;;;;;;;6.57;1.60;;;;;;;10.48;nan;102455.66;6156935;23;20954;-91
2022/11/20 07:31:56;;;;;;;13.10;1.63;;;;;;;10.52;nan;102454.34;6132286;23;20370;-92
2022/11/20 07:34:30;;;;;;;9.13;2.20;;;;;;;10.58;nan;102453.75;6107739;23;20468;-92
2022/11/20 07:37:31;;;;;;;7.93;1.23;;;;;;;10.62;nan;102458.75;6082730;23;20436;-92
2022/11/20 07:40:19;;;;;;;10.40;1.43;;;;;;;10.65;nan;102465.78;6107299;23;20420;-92
2022/11/20 07:43:01;;;;;;;15.43;1.93;;;;;;;10.64;nan;102458.59;6108057;23;20535;-92
2022/11/20 07:45:38;;;;;;;8.43;2.60;;;;;;;10.71;nan;102455.09;6083301;23;20408;-92
2022/11/20 07:52:00;;;;;;;10.03;3.23;;;;;;;10.72;nan;102466.91;6157941;23;20400;-92
2022/11/20 07:55:06;;;;;;;18.07;4.20;;;;;;;10.77;nan;102481.00;6108141;23;20417;-92
2022/11/20 08:01:28;;;;;;;17.70;6.60;;;;;;;10.83;nan;102490.44;6156907;23;20439;-92
2022/11/20 08:07:43;;;;;;;18.83;7.47;;;;;;;10.92;nan;102481.34;6157279;23;20467;-93
2022/11/20 08:10:25;;;;;;;16.37;7.40;;;;;;;10.99;nan;102491.50;6087219;23;20423;-92
2022/11/20 08:17:00;;;;;;;17.00;5.40;;;;;;;11.03;nan;102498.38;6157318;23;20384;-92
2022/11/20 08:19:48;;;;;;;13.73;4.97;;;;;;;11.22;nan;102519.28;6127253;23;20456;-92
2022/11/20 08:22:37;;;;;;;17.90;5.40;;;;;;;11.32;nan;102513.75;6083092;23;20413;-92
2022/11/20 08:25:28;;;;;;;19.33;9.03;;;;;;;11.39;nan;102514.84;6129774;23;20413;-93
2022/11/20 08:28:29;;;;;;;24.10;7.17;;;;;;;11.50;nan;102516.50;6107508;23;20462;-92
2022/11/20 08:31:17;;;;;;;11.00;5.80;;;;;;;11.54;nan;102518.78;6131778;23;20420;-92
2022/11/20 08:37:41;;;;;;;19.47;9.43;;;;;;;11.79;nan;102544.53;6156885;23;20393;-93
2022/11/20 08:44:02;;;;;;;23.57;10.70;;;;;;;11.94;nan;102542.06;6157115;23;20421;-92
2022/11/20 08:50:17;;;;;;;21.07;7.83;;;;;;;12.29;nan;102550.25;6157000;23;20389;-93
2022/11/20 08:52:49;;;;;;;24.47;10.47;;;;;;;12.37;nan;102550.28;6083408;23;20419;-92
2022/11/20 08:55:41;;;;;;;32.00;11.93;;;;;;;12.48;nan;102540.94;6083657;23;20435;-93
2022/11/20 09:35:46;;;;;;;17.50;7.93;;;;;;;14.49;nan;102559.94;6018288;23;20548;-91
2022/11/20 10:40:38;;;;;;;4.13;0.77;;;;;;;17.75;nan;102592.03;6165916;23;21466;-91
2022/11/20 10:43:33;;;;;;;3.77;0.80;;;;;;;17.57;nan;102570.34;6113182;23;20424;-88
2022/11/20 10:46:25;;;;;;;9.33;1.60;;;;;;;17.66;nan;102585.81;5995054;23;20419;-91
2022/11/20 10:49:15;;;;;;;5.33;1.10;;;;;;;17.67;nan;102592.19;6016874;23;20561;-92
2022/11/20 10:52:18;;;;;;;6.47;0.93;;;;;;;17.59;nan;102588.44;6016029;23;20514;-91
2022/11/20 10:55:12;;;;;;;6.77;1.10;;;;;;;17.60;nan;102583.78;5983324;24;20469;-88
2022/11/20 10:58:16;;;;;;;9.20;1.47;;;;;;;17.75;nan;102595.66;5941807;24;20802;-90
2022/11/20 11:01:26;;;;;;;7.50;1.20;;;;;;;17.87;nan;102593.25;5938745;24;20450;-91
2022/11/20 11:04:14;;;;;;;5.37;0.73;;;;;;;17.83;nan;102570.66;6007974;23;20748;-92
2022/11/20 11:15:13;;;;;;;3.70;0.90;;;;;;;18.11;nan;102550.47;6040103;23;20402;-95
2022/11/20 19:46:50;;;;;;;10.00;2.10;;;;;;;14.86;nan;102441.78;6153727;23;20432;-90
2022/11/20 19:49:18;;;;;;;6.73;1.80;;;;;;;14.82;nan;102443.19;6107021;23;20421;-90
2022/11/20 19:51:50;;;;;;;9.33;2.67;;;;;;;14.73;nan;102437.91;6107577;23;20412;-88
2022/11/20 19:54:18;;;;;;;6.70;1.70;;;;;;;14.78;nan;102452.84;6106688;23;20496;-88
2022/11/20 19:56:47;;;;;;;4.47;2.00;;;;;;;14.75;nan;102446.84;6131034;23;20892;-89
2022/11/20 19:59:17;;;;;;;8.20;1.70;;;;;;;14.77;nan;102447.53;6106839;23;20488;-90
2022/11/20 20:02:02;;;;;;;11.47;2.37;;;;;;;14.72;nan;102445.31;6105853;23;20409;-90
2022/11/20 20:04:38;;;;;;;9.00;2.27;;;;;;;14.70;nan;102432.75;6130885;23;20979;-89
2022/11/20 21:30:11;;;;;;;19.77;9.00;;;;;;;14.61;nan;102420.94;6126726;23;20485;-89
2022/11/20 21:32:50;;;;;;;18.10;7.33;;;;;;;14.52;nan;102409.13;6077588;23;20549;-90
2022/11/20 21:36:00;;;;;;;14.00;6.73;;;;;;;14.60;nan;102430.25;6077713;23;20413;-88
2022/11/20 21:38:27;;;;;;;16.97;6.50;;;;;;;14.51;nan;102418.41;6102270;23;20493;-90
2022/11/20 21:41:00;;;;;;;20.37;7.40;;;;;;;14.59;nan;102431.28;6056258;23;20397;-91
2022/11/20 21:43:28;;;;;;;22.17;6.77;;;;;;;14.60;nan;102421.13;6079818;23;20740;-91
2022/11/20 21:46:06;;;;;;;15.60;6.33;;;;;;;14.56;nan;102406.00;6079862;23;20421;-91
2022/11/20 21:48:39;;;;;;;16.47;7.33;;;;;;;14.65;nan;102414.03;6056851;23;20461;-91
2022/11/20 21:51:10;;;;;;;12.20;5.90;;;;;;;14.66;nan;102425.91;6080419;23;20865;-91
2022/11/20 21:53:51;;;;;;;11.70;6.10;;;;;;;14.68;nan;102418.31;6083317;23;20752;-91
2022/11/20 21:56:21;;;;;;;16.60;6.23;;;;;;;14.65;nan;102404.91;6080088;23;20476;-91
2022/11/20 21:58:52;;;;;;;12.20;6.50;;;;;;;14.66;nan;102404.72;6056252;23;20466;-91
2022/11/20 22:01:25;;;;;;;18.70;6.03;;;;;;;14.68;nan;102410.91;6087365;23;20564;-91
2022/11/20 22:04:00;;;;;;;21.37;6.67;;;;;;;14.76;nan;102421.03;6001202;23;20451;-91
2022/11/20 22:06:36;;;;;;;18.20;5.80;;;;;;;14.75;nan;102416.56;6015568;23;20489;-91
2022/11/20 22:09:05;;;;;;;22.27;6.77;;;;;;;14.72;nan;102419.69;5992264;23;20444;-91
2022/11/20 22:11:33;;;;;;;13.83;6.40;;;;;;;14.74;nan;102423.97;5969574;23;20507;-91
2022/11/20 22:14:20;;;;;;;21.87;8.13;;;;;;;14.78;nan;102418.97;5970027;23;20793;-91
2022/11/20 22:16:50;;;;;;;18.67;10.00;;;;;;;14.82;nan;102420.31;5975392;23;20400;-91
2022/11/20 22:19:19;;;;;;;19.47;9.60;;;;;;;14.83;nan;102419.25;5992065;23;20408;-91
2022/11/20 22:21:49;;;;;;;18.73;8.23;;;;;;;14.81;nan;102418.63;6044066;23;20697;-90
2022/11/20 22:24:20;;;;;;;18.77;7.57;;;;;;;14.76;nan;102423.78;6055272;23;20485;-91
2022/11/20 22:26:52;;;;;;;12.73;5.83;;;;;;;14.81;nan;102432.38;6055737;23;20417;-90
2022/11/20 22:29:20;;;;;;;15.90;7.20;;;;;;;14.76;nan;102427.41;6107345;23;20950;-90
2022/11/20 22:31:50;;;;;;;13.73;6.13;;;;;;;14.78;nan;102436.34;6085295;23;20484;-90
2022/11/20 22:34:19;;;;;;;18.87;7.70;;;;;;;14.74;nan;102439.63;6084450;23;20389;-91
2022/11/20 22:36:47;;;;;;;11.17;5.73;;;;;;;14.71;nan;102442.72;6084810;23;20465;-91
2022/11/20 22:39:16;;;;;;;17.40;7.13;;;;;;;14.64;nan;102433.47;6084369;23;20397;-91
2022/11/20 22:41:56;;;;;;;20.93;8.23;;;;;;;14.63;nan;102432.59;6084776;23;20939;-91
2022/11/20 22:44:31;;;;;;;16.63;6.50;;;;;;;14.63;nan;102438.13;6084572;23;20407;-89
2022/11/20 22:47:00;;;;;;;18.97;6.80;;;;;;;14.66;nan;102428.66;6084747;23;20469;-90
2022/11/20 22:49:37;;;;;;;23.13;8.93;;;;;;;14.71;nan;102448.25;6087210;23;20512;-90
2022/11/20 22:52:05;;;;;;;23.53;9.90;;;;;;;14.67;nan;102435.88;6107621;23;20899;-90
2022/11/20 22:54:39;;;;;;;17.07;7.40;;;;;;;14.68;nan;102423.81;6107929;23;20753;-90
2022/11/20 22:57:13;;;;;;;25.63;7.80;;;;;;;14.67;nan;102428.47;6084670;23;20400;-91
2022/11/20 22:59:57;;;;;;;17.63;7.07;;;;;;;14.68;nan;102426.56;6084669;23;20472;-90
2022/11/20 23:02:31;;;;;;;12.23;6.70;;;;;;;14.68;nan;102424.69;6108564;23;20805;-90
2022/11/20 23:05:12;;;;;;;14.47;7.67;;;;;;;14.67;nan;102417.47;6084453;23;20728;-90
2022/11/20 23:07:48;;;;;;;21.10;7.13;;;;;;;14.68;nan;102412.81;6085162;23;20727;-90
2022/11/20 23:10:27;;;;;;;13.07;7.00;;;;;;;14.71;nan;102412.47;6085361;23;20433;-90
2022/11/20 23:12:56;;;;;;;14.83;7.90;;;;;;;14.69;nan;102404.38;6078917;23;20476;-90
2022/11/20 23:15:24;;;;;;;31.57;9.30;;;;;;;14.65;nan;102402.16;6078909;23;20518;-91
2022/11/20 23:17:53;;;;;;;19.83;8.90;;;;;;;14.69;nan;102406.28;6107593;23;20412;-91
2022/11/20 23:20:23;;;;;;;19.90;9.93;;;;;;;14.67;nan;102403.69;6107541;23;20786;-91
2022/11/20 23:22:56;;;;;;;21.33;9.37;;;;;;;14.75;nan;102397.31;6084386;23;20587;-91
2022/11/20 23:25:42;;;;;;;22.23;6.97;;;;;;;14.77;nan;102403.50;6107818;23;20464;-91
2022/11/20 23:28:10;;;;;;;29.87;9.47;;;;;;;14.78;nan;102402.47;6107685;23;20432;-91
2022/11/20 23:30:45;;;;;;;10.80;5.97;;;;;;;14.80;nan;102401.25;6085601;23;20504;-91
2022/11/20 23:33:13;;;;;;;17.03;7.00;;;;;;;14.69;nan;102376.84;6108888;23;20749;-91
2022/11/20 23:35:49;;;;;;;15.53;7.00;;;;;;;14.80;nan;102390.22;6108458;23;20397;-91
2022/11/20 23:38:25;;;;;;;15.67;7.27;;;;;;;14.85;nan;102385.00;6084562;23;20760;-91
2022/11/20 23:41:01;;;;;;;16.60;7.27;;;;;;;14.88;nan;102383.78;6083904;23;20408;-91
2022/11/20 23:43:29;;;;;;;18.30;7.63;;;;;;;14.84;nan;102379.69;6107840;23;20775;-89
2022/11/20 23:46:01;;;;;;;18.03;7.20;;;;;;;14.89;nan;102382.75;6084037;23;20415;-89
2022/11/20 23:48:32;;;;;;;19.53;8.60;;;;;;;14.83;nan;102372.47;6107930;23;20396;-89
2022/11/20 23:51:42;;;;;;;16.33;8.53;;;;;;;14.87;nan;102373.81;6084061;23;20780;-91
2022/11/20 23:54:26;;;;;;;31.40;8.03;;;;;;;14.80;nan;102368.22;6131828;23;20409;-91
2022/11/20 23:56:57;;;;;;;20.60;7.73;;;;;;;14.76;nan;102364.09;6084694;23;20396;-90
2022/11/20 23:59:25;;;;;;;15.83;7.90;;;;;;;14.77;nan;102365.81;6083414;23;20413;-90
